logo
Search for airport 
image banner adimage banner adimage banner ad
image banner ad

RPSB - Bantayan Community Airport

Located in Bantayan Island, Philippines

ICAO - RPSB, IATA -

Data provided by Airmate  

General information

Coordinates: N11°9'44" E123°47'5"
Elevation is 82 feet MSL.
Magnetic variation is -2° East
View others Airports in Cebu

Operational data

Special qualification required
Current time UTC:
Current local time:
Weather at : - ( 0 km )
METAR: YSDU 171808Z AUTO 12004KT 0800 FZFG ////// M00/M00 Q1018 RF00.0/000.0 CLD:SKY MAY BE OBSC
View NOTAMs / SUP AIP / TFR affecting this airport [VIEW]
Communications frequencies: [VIEW]

Runways:

RWY identifierQFULength (ft)Width (ft)SurfaceLDA (ft)
16158°393759CONC3937
34338°393759CONC3937

Airport contact information

Address: Bantayan Island Philippines

Satellite view of RPSB